createdAt,value
2019-04-20T00:00:06.543Z,0
2019-04-20T00:00:48.707Z,0
2019-04-20T00:01:29.164Z,0
2019-04-20T00:02:11.889Z,0
2019-04-20T00:02:50.037Z,0
2019-04-20T00:03:30.778Z,0
2019-04-20T00:04:09.799Z,0
2019-04-20T00:04:46.933Z,0
2019-04-20T00:05:27.468Z,0
2019-04-20T00:06:07.062Z,0
2019-04-20T00:06:51.090Z,0
2019-04-20T00:07:31.249Z,0
2019-04-20T00:08:14.920Z,0
2019-04-20T00:08:55.351Z,0
2019-04-20T00:09:31.672Z,0
2019-04-20T00:10:14.844Z,0
2019-04-20T00:10:56.831Z,0
2019-04-20T00:11:40.818Z,0
2019-04-20T00:12:17.645Z,0
2019-04-20T00:13:01.899Z,0
2019-04-20T00:13:42.442Z,0
2019-04-20T00:14:17.167Z,0
2019-04-20T00:14:52.140Z,0
2019-04-20T00:15:32.403Z,0
2019-04-20T00:16:12.798Z,0
2019-04-20T00:16:53.159Z,0
2019-04-20T00:17:34.721Z,0
2019-04-20T00:18:15.094Z,0
2019-04-20T00:18:58.316Z,0
2019-04-20T00:19:40.397Z,0
2019-04-20T00:20:20.414Z,0
2019-04-20T00:21:00.007Z,0
2019-04-20T00:21:42.531Z,0
2019-04-20T00:22:17.179Z,0
2019-04-20T00:22:58.100Z,0
2019-04-20T00:23:40.375Z,0
2019-04-20T00:24:23.291Z,0
2019-04-20T00:25:03.966Z,0
2019-04-20T00:25:50.095Z,0
2019-04-20T00:26:27.257Z,0
2019-04-20T00:27:25.242Z,0
2019-04-20T00:27:59.224Z,0
2019-04-20T00:28:39.615Z,0
2019-04-20T00:29:21.186Z,0
2019-04-20T00:29:58.537Z,0
2019-04-20T00:30:38.410Z,0
2019-04-20T00:31:18.721Z,0
2019-04-20T00:31:52.181Z,0
2019-04-20T00:32:37.298Z,0
2019-04-20T00:33:11.946Z,0
2019-04-20T00:33:52.637Z,0
2019-04-20T00:34:29.641Z,0
2019-04-20T00:35:04.207Z,0
2019-04-20T00:35:44.537Z,0
2019-04-20T00:36:26.247Z,0
2019-04-20T00:37:06.976Z,0
2019-04-20T00:37:46.674Z,0
2019-04-20T00:38:33.454Z,0
2019-04-20T00:39:09.809Z,0
2019-04-20T00:39:46.987Z,0
2019-04-20T00:40:28.522Z,0
2019-04-20T00:41:11.771Z,0
2019-04-20T00:41:54.987Z,0
2019-04-20T00:42:33.679Z,0
2019-04-20T00:43:12.909Z,0
2019-04-20T00:43:49.453Z,0
2019-04-20T00:44:35.721Z,0
2019-04-20T00:45:15.828Z,0
2019-04-20T00:45:58.534Z,0
2019-04-20T00:46:37.514Z,0
2019-04-20T00:47:25.158Z,0
2019-04-20T00:47:59.083Z,0
2019-04-20T00:48:41.244Z,0
2019-04-20T00:49:25.216Z,0
2019-04-20T00:50:05.374Z,0
2019-04-20T00:50:48.572Z,0
2019-04-20T00:51:34.765Z,0
2019-04-20T00:52:23.601Z,0
2019-04-20T00:52:49.880Z,0
2019-04-20T00:53:22.550Z,0
2019-04-20T00:53:58.562Z,0
2019-04-20T00:54:36.900Z,0
2019-04-20T00:55:16.986Z,0
2019-04-20T00:55:57.095Z,0
2019-04-20T00:56:37.225Z,0
2019-04-20T00:57:24.315Z,0
2019-04-20T00:58:09.237Z,0
2019-04-20T00:58:48.959Z,0
2019-04-20T00:59:31.446Z,0
2019-04-20T01:00:16.240Z,0
2019-04-20T01:01:03.641Z,0
2019-04-20T01:01:42.108Z,0
2019-04-20T01:02:16.734Z,0
2019-04-20T01:02:50.375Z,0
2019-04-20T01:03:33.695Z,0
2019-04-20T01:04:19.700Z,0
2019-04-20T01:04:57.680Z,0
2019-04-20T01:05:39.313Z,0
2019-04-20T01:06:21.974Z,0
2019-04-20T01:06:57.349Z,0
2019-04-20T01:07:32.496Z,0
2019-04-20T01:08:06.212Z,0
2019-04-20T01:08:44.488Z,0
2019-04-20T01:09:24.867Z,0
2019-04-20T01:10:05.404Z,0
2019-04-20T01:10:50.087Z,0
2019-04-20T01:11:30.760Z,0
2019-04-20T01:12:12.412Z,0
2019-04-20T01:12:47.461Z,0
2019-04-20T01:13:28.724Z,0
2019-04-20T01:14:11.153Z,0
2019-04-20T01:14:53.867Z,0
2019-04-20T01:15:37.425Z,0
2019-04-20T01:16:21.265Z,0
2019-04-20T01:16:56.820Z,0
2019-04-20T01:17:29.555Z,0
2019-04-20T01:18:10.657Z,0
2019-04-20T01:18:50.321Z,0
2019-04-20T01:19:30.707Z,0
2019-04-20T01:20:11.195Z,0
2019-04-20T01:20:51.533Z,0
2019-04-20T01:21:33.564Z,0
2019-04-20T01:22:15.833Z,0
2019-04-20T01:22:59.991Z,0
2019-04-20T01:23:39.973Z,0
2019-04-20T01:24:19.955Z,0
2019-04-20T01:24:54.998Z,0
2019-04-20T01:25:39.099Z,0
2019-04-20T01:26:17.888Z,0
2019-04-20T01:26:58.787Z,0
2019-04-20T01:27:47.344Z,0
2019-04-20T01:28:30.861Z,0
2019-04-20T01:29:08.450Z,0
2019-04-20T01:29:41.005Z,0
2019-04-20T01:30:24.562Z,0
2019-04-20T01:31:09.554Z,0
2019-04-20T01:31:55.507Z,0
2019-04-20T01:32:29.599Z,0
2019-04-20T01:33:12.322Z,0
2019-04-20T01:33:49.077Z,0
2019-04-20T01:34:35.588Z,0
2019-04-20T01:35:14.604Z,0
2019-04-20T01:35:56.502Z,0
2019-04-20T01:36:40.467Z,0
2019-04-20T01:37:17.458Z,0
2019-04-20T01:38:00.050Z,0
2019-04-20T01:38:39.763Z,0
2019-04-20T01:39:13.458Z,0
2019-04-20T01:39:49.049Z,0
2019-04-20T01:40:23.599Z,0
2019-04-20T01:41:05.345Z,0
2019-04-20T01:41:45.416Z,0
2019-04-20T01:42:25.477Z,0
2019-04-20T01:43:05.652Z,0
2019-04-20T01:43:46.099Z,0
2019-04-20T01:44:31.562Z,0
2019-04-20T01:45:14.383Z,0
2019-04-20T01:45:47.554Z,0
2019-04-20T01:46:29.728Z,0
2019-04-20T01:47:08.850Z,0
2019-04-20T01:47:52.679Z,0
2019-04-20T01:48:33.302Z,0
2019-04-20T01:49:13.527Z,0
2019-04-20T01:49:57.384Z,0
2019-04-20T01:50:32.972Z,0
2019-04-20T01:51:17.242Z,0
2019-04-20T01:52:00.623Z,0
2019-04-20T01:52:42.436Z,0
2019-04-20T01:53:20.977Z,0
2019-04-20T01:54:05.094Z,0
2019-04-20T01:54:52.139Z,0
2019-04-20T01:55:27.436Z,0
2019-04-20T01:56:07.015Z,0
2019-04-20T01:56:43.307Z,0
2019-04-20T01:57:21.503Z,0
2019-04-20T01:58:11.251Z,0
2019-04-20T01:58:51.921Z,0
2019-04-20T01:59:27.359Z,0
2019-04-20T02:00:03.525Z,0
2019-04-20T02:00:39.890Z,0
2019-04-20T02:01:20.934Z,0
2019-04-20T02:02:02.976Z,0
2019-04-20T02:02:44.748Z,0
2019-04-20T02:03:17.119Z,0
2019-04-20T02:03:58.822Z,0
2019-04-20T02:04:40.895Z,0
2019-04-20T02:05:24.593Z,0
2019-04-20T02:06:03.234Z,0
2019-04-20T02:06:46.157Z,0
2019-04-20T02:07:28.107Z,0
2019-04-20T02:08:00.281Z,0
2019-04-20T02:08:40.237Z,0
2019-04-20T02:09:24.572Z,0
2019-04-20T02:10:04.866Z,0
2019-04-20T02:10:47.436Z,0
2019-04-20T02:11:27.401Z,0
2019-04-20T02:12:08.174Z,0
2019-04-20T02:12:47.455Z,0
2019-04-20T02:13:26.023Z,0
2019-04-20T02:14:06.646Z,0
2019-04-20T02:14:50.409Z,0
2019-04-20T02:15:32.457Z,0
2019-04-20T02:16:14.202Z,0
2019-04-20T02:16:49.522Z,0
2019-04-20T02:17:31.788Z,0
2019-04-20T02:18:17.413Z,0
2019-04-20T02:19:05.140Z,0
2019-04-20T02:19:41.205Z,0
2019-04-20T02:20:27.375Z,0
2019-04-20T02:21:04.748Z,0
2019-04-20T02:21:46.521Z,0
2019-04-20T02:22:19.643Z,0
2019-04-20T02:23:03.016Z,0
2019-04-20T02:23:38.397Z,0
2019-04-20T02:24:11.282Z,0
2019-04-20T02:24:50.909Z,0
2019-04-20T02:25:31.110Z,0
2019-04-20T02:26:11.072Z,0
2019-04-20T02:26:51.900Z,0
2019-04-20T02:27:38.481Z,0
2019-04-20T02:28:25.462Z,0
2019-04-20T02:29:17.146Z,0
2019-04-20T02:29:50.076Z,0
2019-04-20T02:30:47.251Z,0
2019-04-20T02:31:32.192Z,0
2019-04-20T02:32:44.985Z,0
2019-04-20T02:33:34.242Z,0
2019-04-20T02:34:03.297Z,0
2019-04-20T02:34:47.488Z,0
2019-04-20T02:35:23.732Z,0
2019-04-20T02:36:18.776Z,0
2019-04-20T02:37:35.595Z,0
2019-04-20T02:38:10.241Z,0
2019-04-20T02:39:11.410Z,0
2019-04-20T02:40:08.460Z,0
2019-04-20T02:41:34.734Z,0
2019-04-20T02:42:55.347Z,0
2019-04-20T02:43:46.295Z,0
2019-04-20T02:44:21.181Z,0
2019-04-20T02:44:58.480Z,0
2019-04-20T02:45:39.752Z,0
2019-04-20T02:46:05.779Z,0
2019-04-20T02:46:55.129Z,0
2019-04-20T02:48:13.234Z,0
2019-04-20T02:49:00.418Z,0
2019-04-20T02:50:18.825Z,0
2019-04-20T02:51:40.684Z,0
2019-04-20T02:52:20.719Z,0
2019-04-20T02:53:02.538Z,0
2019-04-20T02:53:40.397Z,0
2019-04-20T02:55:00.148Z,0
2019-04-20T02:55:39.557Z,0
2019-04-20T02:56:21.652Z,0
2019-04-20T02:57:45.472Z,0
2019-04-20T02:58:22.662Z,0
2019-04-20T02:59:16.916Z,0
2019-04-20T03:00:29.533Z,0
2019-04-20T03:00:52.074Z,0
2019-04-20T03:01:30.547Z,0
2019-04-20T03:02:10.034Z,0
2019-04-20T03:02:45.600Z,0
2019-04-20T03:03:22.457Z,0
2019-04-20T03:03:58.029Z,0
2019-04-20T03:04:42.175Z,0
2019-04-20T03:05:26.168Z,0
2019-04-20T03:06:08.341Z,0
2019-04-20T03:06:52.265Z,0
2019-04-20T03:07:27.281Z,0
2019-04-20T03:08:13.465Z,0
2019-04-20T03:08:56.155Z,0
2019-04-20T03:09:36.045Z,0
2019-04-20T03:10:10.565Z,0
2019-04-20T03:10:59.588Z,0
2019-04-20T03:11:46.168Z,0
2019-04-20T03:12:23.221Z,0
2019-04-20T03:12:54.845Z,0
2019-04-20T03:13:35.545Z,0
2019-04-20T03:14:17.276Z,0
2019-04-20T03:14:51.257Z,0
2019-04-20T03:15:41.627Z,0
2019-04-20T03:16:16.185Z,0
2019-04-20T03:16:58.508Z,0
2019-04-20T03:17:44.284Z,0
2019-04-20T03:18:19.039Z,0
2019-04-20T03:18:58.191Z,0
2019-04-20T03:19:37.503Z,0
2019-04-20T03:20:21.986Z,0
2019-04-20T03:21:05.240Z,0
2019-04-20T03:21:43.024Z,0
2019-04-20T03:22:28.613Z,0
2019-04-20T03:23:49.811Z,0
2019-04-20T03:24:30.865Z,0
2019-04-20T03:25:04.890Z,0
2019-04-20T03:25:47.965Z,0
2019-04-20T03:26:27.333Z,0
2019-04-20T03:26:59.291Z,0
2019-04-20T03:27:40.860Z,0
2019-04-20T03:28:23.402Z,0
2019-04-20T03:29:00.963Z,0
2019-04-20T03:29:46.759Z,0
2019-04-20T03:31:14.985Z,0
2019-04-20T03:31:28.790Z,0
2019-04-20T03:32:12.735Z,0
2019-04-20T03:33:22.860Z,0
2019-04-20T03:34:12.790Z,0
2019-04-20T03:34:54.719Z,0
2019-04-20T03:35:27.616Z,0
2019-04-20T03:35:56.907Z,0
2019-04-20T03:36:41.352Z,0
2019-04-20T03:37:19.174Z,0
2019-04-20T03:37:52.308Z,0
2019-04-20T03:38:31.195Z,0
2019-04-20T03:39:12.530Z,0
2019-04-20T03:39:47.486Z,0
2019-04-20T03:40:29.135Z,0
2019-04-20T03:41:08.047Z,0
2019-04-20T03:41:40.230Z,0
2019-04-20T03:42:15.974Z,0
2019-04-20T03:42:56.873Z,0
2019-04-20T03:43:37.052Z,0
2019-04-20T03:44:19.549Z,0
2019-04-20T03:45:03.094Z,0
2019-04-20T03:45:44.357Z,0
2019-04-20T03:46:22.189Z,0
2019-04-20T03:47:03.327Z,0
2019-04-20T03:47:52.710Z,0
2019-04-20T03:48:35.734Z,0
2019-04-20T03:49:18.239Z,0
2019-04-20T03:49:59.402Z,0
2019-04-20T03:50:40.688Z,0
2019-04-20T03:51:23.431Z,0
2019-04-20T03:52:02.101Z,0
2019-04-20T03:52:36.112Z,0
2019-04-20T03:53:27.599Z,0
2019-04-20T03:53:58.575Z,0
2019-04-20T03:54:34.269Z,0
2019-04-20T03:55:19.710Z,0
2019-04-20T03:55:56.229Z,0
2019-04-20T03:56:43.696Z,0
2019-04-20T03:57:26.190Z,4
2019-04-20T03:58:02.485Z,4
2019-04-20T03:58:44.013Z,0
2019-04-20T03:59:18.481Z,0
2019-04-20T04:00:04.434Z,0
2019-04-20T04:00:41.097Z,4
2019-04-20T04:01:35.665Z,0
2019-04-20T04:02:21.622Z,4
2019-04-20T04:03:01.282Z,4
2019-04-20T04:03:34.525Z,4
2019-04-20T04:04:09.080Z,4
2019-04-20T04:04:49.105Z,4
2019-04-20T04:05:27.322Z,4
2019-04-20T04:06:01.732Z,4
2019-04-20T04:06:38.933Z,4
2019-04-20T04:07:19.362Z,4
2019-04-20T04:07:59.737Z,8
2019-04-20T04:08:37.647Z,8
2019-04-20T04:09:23.548Z,8
2019-04-20T04:10:09.356Z,8
2019-04-20T04:10:50.048Z,8
2019-04-20T04:11:31.067Z,12
2019-04-20T04:12:05.500Z,12
2019-04-20T04:12:38.306Z,12
2019-04-20T04:13:14.697Z,12
2019-04-20T04:13:54.593Z,16
2019-04-20T04:14:34.611Z,16
2019-04-20T04:15:14.926Z,20
2019-04-20T04:16:00.875Z,24
2019-04-20T04:16:42.649Z,24
2019-04-20T04:17:20.061Z,28
2019-04-20T04:17:57.591Z,28
2019-04-20T04:18:40.742Z,32
2019-04-20T04:19:23.023Z,36
2019-04-20T04:20:04.960Z,36
2019-04-20T04:20:46.305Z,40
2019-04-20T04:21:29.544Z,44
2019-04-20T04:22:12.151Z,44
2019-04-20T04:22:54.786Z,52
2019-04-20T04:23:36.455Z,56
2019-04-20T04:24:12.714Z,60
2019-04-20T04:24:56.850Z,64
2019-04-20T04:25:32.198Z,68
2019-04-20T04:26:15.918Z,76
2019-04-20T04:26:54.723Z,80
2019-04-20T04:27:40.020Z,84
2019-04-20T04:28:18.376Z,88
2019-04-20T04:28:57.816Z,96
2019-04-20T05:06:37.212Z,2456
2019-04-20T05:07:15.037Z,2460
2019-04-20T05:07:55.463Z,2732
2019-04-20T05:08:31.545Z,2900
2019-04-20T05:09:08.948Z,3060
2019-04-20T05:09:45.002Z,3272
2019-04-20T05:10:26.633Z,3420
2019-04-20T05:11:06.892Z,3620
2019-04-20T05:11:49.571Z,3800
2019-04-20T05:12:29.781Z,4052
2019-04-20T05:13:07.182Z,4284
2019-04-20T05:13:54.523Z,4408
2019-04-20T05:14:40.430Z,4552
2019-04-20T05:15:15.668Z,4776
2019-04-20T05:16:03.343Z,5104
2019-04-20T05:16:44.918Z,5328
2019-04-20T05:17:26.033Z,5624
2019-04-20T05:18:11.314Z,5788
2019-04-20T05:19:09.073Z,5984
2019-04-20T05:19:29.066Z,5852
2019-04-20T05:20:09.125Z,6304
2019-04-20T05:20:52.903Z,6508
2019-04-20T05:21:29.688Z,6728
2019-04-20T05:22:13.420Z,6968
2019-04-20T05:22:50.672Z,7284
2019-04-20T05:23:27.724Z,7356
2019-04-20T05:24:11.027Z,7684
2019-04-20T05:24:56.483Z,7852
2019-04-20T05:25:30.760Z,7760
2019-04-20T05:26:13.572Z,8072
2019-04-20T05:26:55.292Z,8048
2019-04-20T05:27:34.332Z,7780
2019-04-20T05:28:09.267Z,8480
2019-04-20T05:28:45.707Z,8844
2019-04-20T05:29:23.764Z,8676
2019-04-20T05:29:57.068Z,8860
2019-04-20T05:30:42.608Z,8968
2019-04-20T05:31:18.538Z,9256
2019-04-20T05:32:05.831Z,9612
2019-04-20T05:32:46.800Z,9644
2019-04-20T05:33:27.428Z,10048
2019-04-20T05:34:19.796Z,10432
2019-04-20T05:35:03.966Z,11264
2019-04-20T05:35:35.092Z,11040
2019-04-20T05:36:17.283Z,11552
2019-04-20T05:36:54.038Z,11328
2019-04-20T05:37:48.533Z,11520
2019-04-20T05:38:31.045Z,12000
2019-04-20T05:39:09.905Z,12096
2019-04-20T05:39:44.244Z,12256
2019-04-20T05:40:26.052Z,12224
2019-04-20T05:41:01.502Z,12800
2019-04-20T05:41:41.621Z,13088
2019-04-20T05:42:29.839Z,13312
2019-04-20T05:43:05.623Z,13408
2019-04-20T05:43:41.005Z,14112
2019-04-20T05:44:20.801Z,14464
2019-04-20T05:45:01.224Z,14432
2019-04-20T05:45:41.213Z,14496
2019-04-20T05:46:26.044Z,14720
2019-04-20T05:47:05.335Z,15200
2019-04-20T05:47:47.502Z,16352
2019-04-20T05:48:20.367Z,16832
2019-04-20T05:49:08.680Z,16800
2019-04-20T05:49:44.890Z,16768
2019-04-20T05:50:30.089Z,16832
2019-04-20T05:51:07.838Z,17856
2019-04-20T05:51:47.388Z,17536
2019-04-20T05:52:50.043Z,18208
2019-04-20T05:53:12.804Z,17920
2019-04-20T05:53:49.851Z,17728
2019-04-20T05:54:32.099Z,18080
2019-04-20T05:55:14.236Z,18496
2019-04-20T05:55:48.639Z,18816
2019-04-20T05:56:35.161Z,19552
2019-04-20T05:57:20.921Z,19808
2019-04-20T05:57:56.254Z,20064
2019-04-20T05:58:32.556Z,20544
2019-04-20T05:59:11.022Z,19840
2019-04-20T06:00:01.467Z,19648
2019-04-20T06:00:40.036Z,20192
2019-04-20T06:01:19.923Z,21344
2019-04-20T06:01:57.280Z,22112
2019-04-20T06:02:36.202Z,22432
2019-04-20T06:03:15.105Z,22432
2019-04-20T06:03:53.738Z,22336
2019-04-20T06:04:53.761Z,21792
2019-04-20T06:05:21.788Z,22400
2019-04-20T06:06:03.079Z,22912
2019-04-20T06:06:37.385Z,21984
2019-04-20T06:07:20.816Z,23040
2019-04-20T06:07:58.950Z,23616
2019-04-20T06:08:45.049Z,24704
2019-04-20T06:09:22.503Z,24960
2019-04-20T06:10:04.401Z,25152
2019-04-20T06:10:44.806Z,26048
2019-04-20T06:11:20.577Z,26976
2019-04-20T06:12:12.689Z,26048
2019-04-20T06:12:39.849Z,26656
2019-04-20T06:13:17.134Z,27040
2019-04-20T06:13:54.146Z,26592
2019-04-20T06:14:39.096Z,26560
2019-04-20T06:15:15.232Z,26304
2019-04-20T06:16:03.349Z,27040
2019-04-20T06:16:49.672Z,26720
2019-04-20T06:17:24.986Z,26720
2019-04-20T06:18:02.274Z,26976
2019-04-20T06:18:39.938Z,27520
2019-04-20T06:19:30.811Z,27040
2019-04-20T06:20:10.972Z,27392
2019-04-20T06:20:47.503Z,27008
2019-04-20T06:21:41.004Z,27808
2019-04-20T06:22:09.871Z,28640
2019-04-20T06:22:48.215Z,29056
2019-04-20T06:23:32.148Z,29984
2019-04-20T06:24:08.075Z,31200
2019-04-20T06:24:51.447Z,31968
2019-04-20T06:25:43.641Z,32512
2019-04-20T06:26:34.926Z,32000
2019-04-20T06:26:59.114Z,30720
2019-04-20T06:27:34.020Z,29280
2019-04-20T06:28:06.179Z,28384
2019-04-20T06:28:46.072Z,27552
2019-04-20T06:29:26.194Z,26720
2019-04-20T06:30:10.824Z,25504
2019-04-20T06:30:46.771Z,24480
2019-04-20T06:31:35.165Z,23200
2019-04-20T06:32:20.075Z,21504
2019-04-20T06:32:59.089Z,21536
2019-04-20T06:33:51.814Z,21120
2019-04-20T06:34:53.248Z,19808
2019-04-20T06:35:51.447Z,19168
2019-04-20T06:36:56.802Z,19040
2019-04-20T06:37:36.048Z,19200
2019-04-20T06:38:34.212Z,18880
2019-04-20T06:39:07.736Z,18176
2019-04-20T06:39:46.282Z,17952
2019-04-20T06:40:36.233Z,18112
2019-04-20T06:41:59.781Z,18528
2019-04-20T06:42:17.438Z,19168
2019-04-20T06:43:03.903Z,18688
2019-04-20T06:43:45.660Z,18176
2019-04-20T06:44:27.420Z,18112
2019-04-20T06:45:03.827Z,17952
2019-04-20T06:45:50.941Z,17536
2019-04-20T06:46:21.616Z,17632
2019-04-20T06:47:45.470Z,16928
2019-04-20T06:48:34.742Z,16448
2019-04-20T06:49:09.843Z,16416
2019-04-20T06:49:37.711Z,16544
2019-04-20T06:50:22.460Z,16448
2019-04-20T06:51:01.534Z,16672
2019-04-20T06:51:47.218Z,16384
2019-04-20T06:52:36.582Z,15552
2019-04-20T06:53:15.858Z,14912
2019-04-20T06:53:46.808Z,14720
2019-04-20T06:54:19.595Z,14784
2019-04-20T06:55:04.994Z,14752
2019-04-20T06:55:57.127Z,14496
2019-04-20T06:56:28.874Z,14560
2019-04-20T06:57:09.729Z,14432
2019-04-20T06:57:49.447Z,14688
2019-04-20T06:58:43.139Z,14784
2019-04-20T06:59:19.468Z,14880
2019-04-20T06:59:52.152Z,14880
2019-04-20T07:00:30.319Z,15296
2019-04-20T07:01:10.382Z,15456
2019-04-20T07:02:35.385Z,15040
2019-04-20T07:03:14.167Z,14496
2019-04-20T07:04:41.383Z,13876
2019-04-20T07:05:18.126Z,13808
2019-04-20T07:06:05.929Z,13804
2019-04-20T07:06:55.857Z,13088
2019-04-20T07:07:18.251Z,12460
2019-04-20T07:07:56.023Z,11980
2019-04-20T07:08:48.627Z,11764
2019-04-20T07:09:21.481Z,11800
2019-04-20T07:10:08.277Z,11496
2019-04-20T07:10:43.680Z,11428
2019-04-20T07:11:23.101Z,11300
2019-04-20T07:11:56.433Z,11328
2019-04-20T07:12:36.775Z,11176
2019-04-20T07:13:11.372Z,11344
2019-04-20T07:13:50.056Z,11468
2019-04-20T07:14:32.782Z,11364
2019-04-20T07:15:18.674Z,11596
2019-04-20T07:15:56.506Z,11296
2019-04-20T07:16:44.451Z,10904
2019-04-20T07:17:32.617Z,10596
2019-04-20T07:18:07.935Z,10572
2019-04-20T07:18:42.240Z,10760
2019-04-20T07:19:22.454Z,10932
2019-04-20T07:19:59.910Z,10988
2019-04-20T07:20:50.005Z,10820
2019-04-20T07:21:37.164Z,10620
2019-04-20T07:22:18.367Z,9744
2019-04-20T07:22:45.600Z,8228
2019-04-20T07:23:30.985Z,6916
2019-04-20T07:24:11.595Z,6200
2019-04-20T07:24:51.546Z,5912
2019-04-20T07:25:30.760Z,5684
2019-04-20T07:26:16.398Z,5488
2019-04-20T07:26:48.997Z,5340
2019-04-20T07:27:29.328Z,5212
2019-04-20T07:28:10.899Z,5100
2019-04-20T07:28:52.353Z,5012
2019-04-20T07:29:33.117Z,4944
2019-04-20T07:30:11.923Z,4884
2019-04-20T07:30:50.137Z,4892
2019-04-20T07:31:29.148Z,4944
2019-04-20T07:32:05.969Z,4924
2019-04-20T07:32:57.626Z,4836
2019-04-20T07:33:31.980Z,4784
2019-04-20T07:34:15.465Z,4820
2019-04-20T07:34:55.456Z,4816
2019-04-20T07:35:35.291Z,4744
2019-04-20T07:36:19.357Z,4636
2019-04-20T07:37:09.670Z,4496
2019-04-20T07:38:34.110Z,4252
2019-04-20T07:38:59.534Z,4180
2019-04-20T07:39:40.009Z,4132
2019-04-20T07:40:28.554Z,4064
2019-04-20T07:40:55.722Z,3996
2019-04-20T07:41:47.607Z,3904
2019-04-20T07:42:22.515Z,3808
2019-04-20T07:42:58.636Z,3736
2019-04-20T07:43:38.875Z,3692
2019-04-20T07:44:26.832Z,3664
2019-04-20T07:45:06.944Z,3636
2019-04-20T07:45:36.085Z,3592
2019-04-20T07:46:34.452Z,3552
2019-04-20T07:47:06.790Z,3508
2019-04-20T07:47:45.452Z,3472
2019-04-20T07:48:20.188Z,3440
2019-04-20T07:49:01.024Z,3412
2019-04-20T07:49:40.093Z,3388
2019-04-20T07:50:16.968Z,3356
2019-04-20T07:50:54.113Z,3328
2019-04-20T07:51:30.060Z,3288
2019-04-20T07:52:04.512Z,3248
2019-04-20T07:52:55.687Z,3216
2019-04-20T07:53:36.020Z,3188
2019-04-20T07:54:28.089Z,3164
2019-04-20T07:55:25.587Z,3136
2019-04-20T07:55:50.403Z,3104
2019-04-20T07:56:30.232Z,3076
2019-04-20T07:57:03.319Z,3040
2019-04-20T07:57:41.751Z,3012
2019-04-20T07:58:22.397Z,2992
2019-04-20T07:58:55.152Z,2976
2019-04-20T07:59:43.466Z,2956
2019-04-20T08:00:34.831Z,2936
2019-04-20T08:01:14.064Z,2916
2019-04-20T08:02:00.401Z,2904
2019-04-20T08:02:36.422Z,2888
2019-04-20T08:03:16.169Z,2884
2019-04-20T08:03:55.409Z,2868
2019-04-20T08:04:28.459Z,2852
2019-04-20T08:05:07.893Z,2844
2019-04-20T08:05:42.671Z,2832
2019-04-20T08:06:19.689Z,2824
2019-04-20T08:06:59.046Z,2812
2019-04-20T08:07:43.029Z,2800
2019-04-20T08:08:27.807Z,2784
2019-04-20T08:09:07.024Z,2772
2019-04-20T08:09:43.744Z,2764
2019-04-20T08:10:33.520Z,2748
2019-04-20T08:11:13.619Z,2740
2019-04-20T08:12:01.298Z,2728
2019-04-20T08:12:40.105Z,2716
2019-04-20T08:13:22.946Z,2708
2019-04-20T08:14:05.535Z,2696
2019-04-20T08:14:44.253Z,2688
2019-04-20T08:15:29.581Z,2680
2019-04-20T08:16:30.792Z,2668
2019-04-20T08:16:46.001Z,2664
2019-04-20T08:17:44.116Z,2652
2019-04-20T08:17:59.538Z,2640
2019-04-20T08:18:43.873Z,2632
2019-04-20T08:19:21.748Z,2624
2019-04-20T08:20:02.564Z,2612
2019-04-20T08:20:44.890Z,2604
2019-04-20T08:21:28.256Z,2596
2019-04-20T08:22:07.496Z,2588
2019-04-20T08:22:47.304Z,2580
2019-04-20T08:23:38.454Z,2568
2019-04-20T08:24:06.741Z,2564
2019-04-20T08:24:42.518Z,2552
2019-04-20T08:25:20.121Z,2552
2019-04-20T08:25:56.421Z,2548
2019-04-20T08:26:34.342Z,2548
2019-04-20T08:27:11.210Z,2544
2019-04-20T08:27:48.824Z,2536
2019-04-20T08:28:35.773Z,2528
2019-04-20T08:29:21.338Z,2520
2019-04-20T08:30:01.722Z,2516
2019-04-20T08:30:46.221Z,2512
2019-04-20T08:31:24.214Z,2508
2019-04-20T08:32:11.341Z,2496
2019-04-20T08:32:46.535Z,2500
2019-04-20T08:33:30.719Z,2492
2019-04-20T08:34:18.362Z,2488
2019-04-20T08:34:53.196Z,2476
2019-04-20T08:35:38.761Z,2472
2019-04-20T08:36:16.096Z,2472
2019-04-20T08:36:56.499Z,2468
2019-04-20T08:37:30.906Z,2464
2019-04-20T08:38:49.643Z,2456
2019-04-20T08:39:19.793Z,2452
2019-04-20T08:39:44.613Z,2444
2019-04-20T08:40:19.299Z,2444
2019-04-20T08:40:53.093Z,2436
2019-04-20T08:41:29.536Z,2428
2019-04-20T08:42:15.971Z,2424
2019-04-20T08:43:10.501Z,2416
2019-04-20T08:43:46.649Z,2412
2019-04-20T08:44:40.978Z,2412
2019-04-20T08:45:03.518Z,2404
2019-04-20T08:45:41.391Z,2404
2019-04-20T08:47:49.725Z,2384
2019-04-20T08:48:23.021Z,2380
2019-04-20T08:49:01.305Z,2372
2019-04-20T08:49:40.858Z,2368
2019-04-20T08:50:22.137Z,2360
2019-04-20T08:51:03.278Z,2356
2019-04-20T08:51:49.283Z,2348
2019-04-20T08:52:46.332Z,2348
2019-04-20T08:53:46.232Z,2340
2019-04-20T08:54:21.524Z,2336
2019-04-20T08:55:04.541Z,2328
2019-04-20T08:55:41.202Z,2328
2019-04-20T08:56:18.138Z,2324
2019-04-20T08:56:52.095Z,2320
2019-04-20T08:57:27.153Z,2316
2019-04-20T08:58:07.315Z,2308
2019-04-20T08:58:48.328Z,2304
2019-04-20T08:59:28.905Z,2304
2019-04-20T09:00:09.261Z,2300
2019-04-20T09:00:55.259Z,2296
2019-04-20T09:01:32.619Z,2288
2019-04-20T09:02:13.495Z,2284
2019-04-20T09:02:55.422Z,2276
2019-04-20T09:03:41.895Z,2268
2019-04-20T09:04:15.203Z,2264
2019-04-20T09:04:56.831Z,2260
2019-04-20T09:05:42.240Z,2252
2019-04-20T09:06:26.099Z,2248
2019-04-20T09:07:03.794Z,2244
2019-04-20T09:07:35.938Z,2240
2019-04-20T09:08:18.713Z,2236
2019-04-20T09:09:11.497Z,2228
2019-04-20T09:09:52.372Z,2224
2019-04-20T09:10:37.856Z,2216
2019-04-20T09:11:09.562Z,2212
2019-04-20T09:11:54.099Z,2208
2019-04-20T09:12:31.823Z,2204
2019-04-20T09:13:07.983Z,2204
2019-04-20T09:13:42.985Z,2196
2019-04-20T09:14:18.510Z,2192
2019-04-20T09:14:59.702Z,2192
2019-04-20T09:15:40.397Z,2192
2019-04-20T09:16:26.760Z,2184
2019-04-20T09:17:05.486Z,2176
2019-04-20T09:17:47.110Z,2176
2019-04-20T09:18:28.946Z,2172
2019-04-20T09:19:07.542Z,2168
2019-04-20T09:19:50.164Z,2168
2019-04-20T09:20:31.602Z,2164
2019-04-20T09:21:10.819Z,2156
2019-04-20T09:21:50.954Z,2156
2019-04-20T09:22:33.902Z,2152
2019-04-20T09:23:21.133Z,2148
2019-04-20T09:24:01.626Z,2140
2019-04-20T09:24:50.805Z,2136
2019-04-20T09:25:42.369Z,2132
2019-04-20T09:26:04.452Z,2128
2019-04-20T09:26:42.117Z,2124
2019-04-20T09:27:18.016Z,2124
2019-04-20T09:27:53.892Z,2116
2019-04-20T09:28:37.023Z,2112
2019-04-20T09:31:15.084Z,2096
2019-04-20T09:31:51.716Z,2092
2019-04-20T09:32:38.182Z,2088
2019-04-20T09:33:22.056Z,2092
2019-04-20T09:34:01.362Z,2076
2019-04-20T09:34:46.318Z,2084
2019-04-20T09:35:24.680Z,2068
2019-04-20T09:35:57.538Z,2072
2019-04-20T09:36:37.369Z,2072
2019-04-20T09:37:36.683Z,2060
2019-04-20T09:37:59.487Z,2060
2019-04-20T09:38:40.342Z,2052
2019-04-20T09:39:14.843Z,2048
2019-04-20T09:40:07.754Z,2044
2019-04-20T09:40:44.728Z,2040
2019-04-20T09:41:30.227Z,2040
2019-04-20T09:42:01.027Z,2036
2019-04-20T09:42:28.458Z,2032
2019-04-20T09:43:08.918Z,2028
2019-04-20T09:43:49.564Z,2024
2019-04-20T09:44:35.434Z,2020
2019-04-20T09:45:17.936Z,2024
2019-04-20T09:45:56.751Z,2012
2019-04-20T09:46:37.649Z,2008
2019-04-20T09:47:12.298Z,2008
2019-04-20T09:47:54.870Z,2004
2019-04-20T09:48:40.083Z,1996
2019-04-20T09:49:19.926Z,1992
2019-04-20T09:50:03.176Z,1988
2019-04-20T09:50:52.915Z,1984
2019-04-20T09:51:29.994Z,1976
2019-04-20T09:52:06.194Z,1972
2019-04-20T09:52:51.167Z,1968
2019-04-20T09:53:29.325Z,1960
2019-04-20T09:54:08.090Z,1956
2019-04-20T09:54:54.723Z,1952
2019-04-20T09:55:27.810Z,1944
2019-04-20T09:56:15.190Z,1940
2019-04-20T09:56:59.134Z,1936
2019-04-20T09:57:32.997Z,1932
2019-04-20T09:58:12.206Z,1928
2019-04-20T09:59:00.564Z,1924
2019-04-20T09:59:36.981Z,1924
2019-04-20T10:00:15.170Z,1920
2019-04-20T10:00:53.772Z,1916
2019-04-20T10:01:30.819Z,1912
2019-04-20T10:02:10.145Z,1908
2019-04-20T10:02:43.282Z,1908
2019-04-20T10:03:23.089Z,1908
2019-04-20T10:04:03.545Z,1900
2019-04-20T10:04:43.971Z,1896
2019-04-20T10:05:25.343Z,1896
2019-04-20T10:06:05.452Z,1892
2019-04-20T10:06:45.541Z,1888
2019-04-20T10:07:28.974Z,1884
2019-04-20T10:08:08.213Z,1880
2019-04-20T10:08:50.744Z,1876
2019-04-20T10:09:32.093Z,1876
2019-04-20T10:10:17.713Z,1868
2019-04-20T10:10:49.040Z,1864
2019-04-20T10:11:28.011Z,1860
2019-04-20T10:12:08.436Z,1852
2019-04-20T10:12:50.086Z,1848
2019-04-20T10:13:30.097Z,1844
2019-04-20T10:14:10.386Z,1844